Time;durP1;ratioP1;P1;durP2;ratioP2;P2;SDS_P1;SDS_P2;PMS_P1;PMS_P2;Temp;Humidity;BMP_temperature;BMP_pressure;BME280_temperature;BME280_humidity;BME280_pressure;Samples;Min_cycle;Max_cycle;Signal;HPM_P1;HPM_P2
2021/10/06 00:01:34;;;;;;;2.30;2.03;;;10.00;99.90;;;10.71;100.00;97771.09;5162689;28;20229;-55
2021/10/06 00:04:07;;;;;;;2.60;2.40;;;9.80;99.90;;;10.60;100.00;97769.63;5155757;28;20207;-56
2021/10/06 00:06:40;;;;;;;3.17;2.88;;;9.70;99.90;;;10.64;100.00;97780.88;5163276;28;20207;-56
2021/10/06 00:09:14;;;;;;;2.50;2.40;;;9.90;99.90;;;10.49;100.00;97792.00;5162010;28;20254;-57
2021/10/06 00:11:48;;;;;;;2.83;2.20;;;9.70;99.90;;;10.47;100.00;97793.63;5162016;28;20306;-58
2021/10/06 00:14:23;;;;;;;4.32;2.65;;;9.70;99.90;;;10.48;100.00;97797.94;5160319;28;20199;-55
2021/10/06 00:16:56;;;;;;;4.60;2.70;;;9.70;99.90;;;10.47;100.00;97798.72;5163260;28;20203;-58
2021/10/06 00:19:29;;;;;;;3.22;2.92;;;9.70;99.90;;;10.41;100.00;97807.72;5163881;28;20610;-56
2021/10/06 00:22:02;;;;;;;2.38;2.28;;;9.60;99.90;;;10.41;100.00;97803.47;5160499;28;20664;-57
2021/10/06 00:24:39;;;;;;;3.15;2.78;;;9.60;99.90;;;10.45;100.00;97807.97;5163863;28;20203;-53
2021/10/06 00:27:12;;;;;;;4.57;3.00;;;9.70;99.90;;;10.43;100.00;97817.22;5160824;28;20204;-54
2021/10/06 00:29:46;;;;;;;3.20;2.72;;;9.70;99.90;;;10.46;100.00;97811.41;5162652;28;20302;-56
2021/10/06 00:32:19;;;;;;;3.22;2.70;;;9.80;99.90;;;10.51;100.00;97810.00;5162912;28;20222;-56
2021/10/06 00:34:53;;;;;;;4.20;2.30;;;9.80;99.90;;;10.53;100.00;97816.06;5163978;28;20227;-55
2021/10/06 00:37:26;;;;;;;4.15;2.60;;;9.70;99.90;;;10.49;100.00;97821.81;5161751;28;20199;-54
2021/10/06 00:39:59;;;;;;;2.83;2.30;;;9.70;99.90;;;10.47;100.00;97823.38;5163295;28;20246;-53
2021/10/06 00:42:32;;;;;;;2.17;2.08;;;9.70;99.90;;;10.55;100.00;97827.25;5167099;28;20754;-56
2021/10/06 00:45:08;;;;;;;2.50;2.30;;;9.80;99.90;;;10.56;100.00;97823.94;5168042;28;20213;-53
2021/10/06 00:47:41;;;;;;;4.32;2.40;;;9.80;99.90;;;10.57;100.00;97828.22;5163944;28;20210;-56
2021/10/06 00:50:15;;;;;;;3.03;2.70;;;9.80;99.90;;;10.60;100.00;97826.72;5166736;28;21213;-53
2021/10/06 00:52:48;;;;;;;5.15;3.10;;;9.90;99.90;;;10.70;100.00;97829.78;5167165;28;20219;-57
2021/10/06 00:55:22;;;;;;;3.97;2.85;;;9.90;99.90;;;10.72;100.00;97826.53;5166914;28;20295;-56
2021/10/06 00:57:55;;;;;;;3.85;2.70;;;10.00;99.90;;;10.75;100.00;97825.81;5165653;28;20203;-58
2021/10/06 01:00:29;;;;;;;3.08;2.70;;;10.00;99.90;;;10.78;100.00;97825.97;5167258;28;20726;-54
2021/10/06 01:03:02;;;;;;;3.33;2.85;;;10.10;99.90;;;10.83;100.00;97828.00;5167158;28;20234;-54
2021/10/06 01:05:36;;;;;;;3.55;2.88;;;10.10;99.90;;;10.92;100.00;97829.31;5162035;28;20298;-56
2021/10/06 01:08:09;;;;;;;3.28;2.70;;;10.20;99.90;;;10.93;100.00;97829.41;5164668;28;20207;-59
2021/10/06 01:10:43;;;;;;;4.95;3.17;;;10.20;99.90;;;11.00;100.00;97828.06;5167938;28;20718;-55
2021/10/06 01:13:17;;;;;;;4.40;2.95;;;10.10;99.90;;;10.91;100.00;97837.78;5166241;28;20281;-56
2021/10/06 01:15:52;;;;;;;4.35;3.20;;;10.10;99.90;;;10.96;100.00;97837.25;5166513;28;20491;-54
2021/10/06 01:18:25;;;;;;;3.13;2.78;;;10.10;99.90;;;10.91;100.00;97840.34;5164993;28;20194;-53
2021/10/06 01:21:09;;;;;;;5.30;2.85;;;10.10;99.90;;;10.99;100.00;97847.63;5164639;28;20223;-56
2021/10/06 01:23:42;;;;;;;3.70;2.95;;;10.30;99.90;;;11.03;100.00;97833.34;5166903;28;20222;-54
2021/10/06 01:26:19;;;;;;;8.50;3.28;;;10.30;99.90;;;11.09;100.00;97846.44;5164437;28;20195;-55
2021/10/06 01:28:55;;;;;;;6.32;2.90;;;10.30;99.90;;;11.03;100.00;97846.13;5166749;28;20211;-57
2021/10/06 01:31:29;;;;;;;3.13;2.90;;;10.30;99.90;;;10.97;100.00;97858.56;5166656;28;20229;-53
2021/10/06 01:34:02;;;;;;;4.20;3.20;;;10.30;99.90;;;10.98;100.00;97862.88;5167671;28;20443;-56
2021/10/06 01:36:37;;;;;;;4.13;2.80;;;10.20;99.90;;;10.98;100.00;97861.19;5163370;28;20205;-57
2021/10/06 01:39:10;;;;;;;3.72;2.70;;;10.20;99.90;;;10.98;100.00;97876.53;5165974;28;20315;-54
2021/10/06 01:41:44;;;;;;;3.95;3.13;;;10.20;99.90;;;10.97;100.00;97869.69;5166403;28;20223;-55
2021/10/06 01:44:19;;;;;;;2.65;2.45;;;10.20;99.90;;;11.00;100.00;97863.88;5164941;28;20318;-57
2021/10/06 01:46:53;;;;;;;5.05;2.78;;;10.20;99.90;;;11.01;100.00;97868.16;5164241;28;20207;-57
2021/10/06 01:49:26;;;;;;;4.05;2.75;;;10.20;99.90;;;11.00;100.00;97863.88;5163870;28;20710;-54
2021/10/06 01:52:01;;;;;;;5.65;2.88;;;10.30;99.90;;;10.94;100.00;97872.06;5160000;28;20232;-57
2021/10/06 01:54:34;;;;;;;4.07;2.90;;;10.20;99.90;;;11.00;100.00;97879.22;5164431;28;20297;-53
2021/10/06 01:57:08;;;;;;;5.00;3.13;;;10.20;99.90;;;10.97;100.00;97869.69;5164819;28;20206;-54
2021/10/06 01:59:44;;;;;;;6.05;3.25;;;10.20;99.90;;;10.92;100.00;97865.97;5165983;28;20199;-57
2021/10/06 02:02:19;;;;;;;7.38;4.10;;;10.20;99.90;;;10.94;100.00;97866.97;5194340;22;20221;-56
2021/10/06 02:04:52;;;;;;;3.15;2.85;;;10.20;99.90;;;10.85;100.00;97868.13;5205776;28;20221;-56
2021/10/06 02:07:26;;;;;;;4.50;3.00;;;10.10;99.90;;;10.95;100.00;97861.03;5200440;28;20486;-56
2021/10/06 02:09:59;;;;;;;3.80;2.58;;;10.20;99.90;;;11.00;100.00;97859.63;5206868;28;20193;-59
2021/10/06 02:12:32;;;;;;;4.20;2.72;;;10.30;99.90;;;11.09;100.00;97866.03;5201275;28;20308;-58
2021/10/06 02:15:08;;;;;;;4.68;3.65;;;10.30;99.90;;;11.10;100.00;97866.09;5206586;28;20676;-55
2021/10/06 02:17:41;;;;;;;6.90;4.40;;;10.30;99.90;;;11.03;100.00;97864.91;5206009;28;20207;-56
2021/10/06 02:20:14;;;;;;;6.97;3.70;;;10.20;99.90;;;11.10;100.00;97862.69;5206486;28;20292;-53
2021/10/06 02:22:49;;;;;;;9.05;4.97;;;10.30;99.90;;;11.08;100.00;97860.06;5200035;28;20226;-57
2021/10/06 02:25:22;;;;;;;6.68;4.15;;;10.30;99.90;;;11.19;100.00;97858.97;5197571;28;20225;-51
2021/10/06 02:27:55;;;;;;;5.57;3.70;;;10.30;99.90;;;11.21;100.00;97857.34;5205033;28;20651;-57
2021/10/06 02:30:29;;;;;;;3.88;2.70;;;10.30;99.90;;;11.27;100.00;97852.59;5205549;28;20570;-57
2021/10/06 02:33:02;;;;;;;2.70;2.20;;;10.30;99.90;;;11.26;100.00;97857.59;5205703;28;20224;-57
2021/10/06 02:35:35;;;;;;;3.65;2.40;;;10.30;99.90;;;11.25;100.00;97860.97;5198224;28;20200;-56
2021/10/06 02:38:09;;;;;;;3.35;2.40;;;10.30;99.90;;;11.28;100.00;97864.56;5202089;28;20204;-56
2021/10/06 02:40:42;;;;;;;4.07;2.40;;;10.30;99.90;;;11.23;100.00;97862.56;5205658;28;20201;-55
2021/10/06 02:43:15;;;;;;;3.08;2.53;;;10.40;99.90;;;11.20;100.00;97865.84;5205750;28;20305;-57
2021/10/06 02:45:48;;;;;;;5.30;2.22;;;10.30;99.90;;;11.23;100.00;97865.13;5207039;28;20224;-59
2021/10/06 02:48:23;;;;;;;4.70;2.60;;;10.40;99.90;;;11.25;100.00;97866.09;5203023;28;20554;-57
2021/10/06 02:50:56;;;;;;;4.63;2.60;;;10.50;99.90;;;11.31;100.00;97870.66;5204687;28;20732;-58
2021/10/06 02:53:31;;;;;;;4.72;2.50;;;10.50;99.90;;;11.32;100.00;97873.28;5203002;28;20238;-60
2021/10/06 02:56:04;;;;;;;2.53;2.28;;;10.50;99.90;;;11.33;100.00;97874.16;5200068;28;20288;-56
2021/10/06 02:58:37;;;;;;;2.85;2.60;;;10.50;99.90;;;11.33;100.00;97879.28;5203812;28;20201;-57
2021/10/06 03:01:10;;;;;;;2.97;2.60;;;10.40;99.90;;;11.30;100.00;97882.56;5203675;28;20193;-53
2021/10/06 03:03:43;;;;;;;3.15;2.78;;;10.40;99.90;;;11.29;100.00;97888.47;5204803;28;20206;-52
2021/10/06 03:06:17;;;;;;;3.10;2.00;;;10.40;99.90;;;11.26;100.00;97904.53;5202596;28;20208;-56
2021/10/06 03:08:51;;;;;;;3.40;2.33;;;10.40;99.90;;;11.33;100.00;97899.75;5206693;28;20198;-57
2021/10/06 03:11:24;;;;;;;3.38;2.08;;;10.40;99.90;;;11.26;100.00;97904.53;5202572;28;20258;-58
2021/10/06 03:13:57;;;;;;;2.47;2.17;;;10.30;99.90;;;11.29;100.00;97903.81;5204401;28;20289;-57
2021/10/06 03:16:31;;;;;;;2.45;2.25;;;10.40;99.90;;;11.27;100.00;97896.09;5205484;28;20205;-57
2021/10/06 03:19:04;;;;;;;2.83;2.40;;;10.40;99.90;;;11.23;100.00;97899.25;5204297;28;20206;-55
2021/10/06 03:21:37;;;;;;;3.22;2.28;;;10.30;99.90;;;11.30;100.00;97905.56;5203468;28;20671;-55
2021/10/06 03:24:11;;;;;;;3.78;2.35;;;10.40;99.90;;;11.35;100.00;97900.72;5206040;28;20308;-56
2021/10/06 03:26:44;;;;;;;2.90;2.60;;;10.50;99.90;;;11.35;100.00;97900.72;5203362;28;20565;-58
2021/10/06 03:29:18;;;;;;;2.60;2.40;;;10.50;99.90;;;11.32;100.00;97908.25;5199085;28;20205;-54
2021/10/06 03:31:51;;;;;;;2.83;2.33;;;10.40;99.90;;;11.46;100.00;97907.31;5205268;28;20371;-56
2021/10/06 03:34:24;;;;;;;2.55;2.35;;;10.50;99.90;;;11.37;100.00;97912.81;5202327;28;20209;-53
2021/10/06 03:36:57;;;;;;;2.65;2.10;;;10.40;99.90;;;11.32;100.00;97908.25;5200494;28;20200;-54
2021/10/06 03:39:31;;;;;;;2.15;1.95;;;10.40;99.90;;;11.18;100.00;97916.03;5204587;28;20562;-53
2021/10/06 03:42:04;;;;;;;3.25;2.45;;;10.30;99.90;;;11.23;100.00;97919.72;5204973;28;20231;-58
2021/10/06 03:44:38;;;;;;;3.28;2.15;;;10.30;99.90;;;11.26;100.00;97919.88;5204653;28;20231;-55
2021/10/06 03:47:11;;;;;;;2.95;2.22;;;10.40;99.90;;;11.28;100.00;97920.88;5204108;28;20584;-57
2021/10/06 03:49:44;;;;;;;4.30;2.33;;;10.40;99.90;;;11.36;100.00;97925.50;5202412;28;20296;-57
2021/10/06 03:52:17;;;;;;;3.50;2.38;;;10.30;99.90;;;11.37;100.00;97922.16;5200134;28;20222;-57
2021/10/06 03:54:51;;;;;;;4.00;2.20;;;10.30;99.90;;;11.37;100.00;97928.16;5200176;28;20194;-57
2021/10/06 03:57:24;;;;;;;3.10;2.10;;;10.30;99.90;;;11.41;100.00;97929.22;5205601;28;20220;-56
2021/10/06 03:59:57;;;;;;;4.03;2.10;;;10.30;99.90;;;11.39;100.00;97928.22;5204273;28;20285;-57
2021/10/06 04:02:30;;;;;;;2.60;2.10;;;10.40;99.90;;;11.39;100.00;97935.91;5194031;28;20222;-56
2021/10/06 04:05:04;;;;;;;2.80;2.00;;;10.40;99.90;;;11.42;100.00;97943.78;5203703;28;20225;-56
2021/10/06 04:07:37;;;;;;;3.35;2.28;;;10.40;99.90;;;11.41;100.00;97950.56;5205083;28;20323;-56
2021/10/06 04:10:12;;;;;;;5.53;2.35;;;10.40;99.90;;;11.32;100.00;97954.28;5198562;28;20190;-58
2021/10/06 04:12:45;;;;;;;4.57;2.20;;;10.30;99.90;;;11.35;100.00;97951.91;5204552;28;20312;-57
2021/10/06 04:15:18;;;;;;;2.47;2.20;;;10.30;99.90;;;11.24;100.00;97964.09;5194153;28;20195;-60
2021/10/06 04:17:51;;;;;;;2.45;2.10;;;10.20;99.90;;;11.26;100.00;97965.06;5203667;28;20201;-58
2021/10/06 04:20:25;;;;;;;3.22;2.03;;;10.20;99.90;;;11.30;100.00;97955.88;5203196;28;20202;-60
2021/10/06 04:22:58;;;;;;;3.28;1.80;;;10.30;99.90;;;11.34;100.00;97963.81;5200324;28;20218;-58
2021/10/06 04:25:33;;;;;;;3.13;2.10;;;10.30;99.90;;;11.39;100.00;97971.75;5198276;28;20230;-58
2021/10/06 04:28:06;;;;;;;3.60;2.00;;;10.30;99.90;;;11.40;100.00;97974.41;5197276;28;20564;-55
2021/10/06 04:30:39;;;;;;;2.63;2.38;;;10.30;99.90;;;11.47;100.00;97973.03;5201009;28;20208;-58
2021/10/06 04:33:12;;;;;;;3.33;2.30;;;10.30;99.90;;;11.45;100.00;97974.66;5203411;28;20660;-57
2021/10/06 04:35:45;;;;;;;2.28;2.10;;;10.30;99.90;;;11.42;100.00;97977.06;5198197;28;20212;-56
2021/10/06 04:38:18;;;;;;;3.65;1.75;;;10.30;99.90;;;11.41;100.00;97976.16;5196978;28;20222;-56
2021/10/06 04:40:52;;;;;;;2.88;2.05;;;10.30;99.90;;;11.36;100.00;97982.72;5192626;28;20666;-52
2021/10/06 04:43:25;;;;;;;3.83;2.00;;;10.30;99.90;;;11.32;100.00;97982.44;5190616;28;20231;-58
2021/10/06 04:45:58;;;;;;;3.63;1.88;;;10.30;99.90;;;11.21;100.00;97992.94;5188581;28;20559;-61
2021/10/06 04:48:31;;;;;;;2.85;2.20;;;10.30;99.90;;;11.18;100.00;97986.78;5193478;28;20204;-62
2021/10/06 04:51:05;;;;;;;4.65;2.25;;;10.30;99.90;;;11.09;100.00;97997.38;5196393;28;20601;-57
2021/10/06 04:53:38;;;;;;;2.58;2.03;;;10.30;99.90;;;11.04;100.00;97988.56;5201708;28;20651;-58
2021/10/06 04:56:12;;;;;;;2.83;2.05;;;10.20;99.90;;;11.07;100.00;97993.84;5197198;28;20197;-62
2021/10/06 04:58:45;;;;;;;2.75;2.20;;;10.30;99.90;;;11.08;100.00;97995.63;5199458;28;20205;-58
2021/10/06 05:01:18;;;;;;;3.58;2.10;;;10.30;99.90;;;11.09;100.00;97996.50;5202350;28;20237;-55
2021/10/06 05:03:51;;;;;;;2.30;2.10;;;10.30;99.90;;;11.11;100.00;98002.59;5199602;28;20220;-61
2021/10/06 05:06:24;;;;;;;2.28;2.08;;;10.40;99.90;;;11.08;100.00;97998.19;5200889;28;20234;-58
2021/10/06 05:08:57;;;;;;;2.58;2.10;;;10.40;99.90;;;11.12;100.00;98001.78;5200256;28;20198;-56
2021/10/06 05:11:32;;;;;;;4.30;2.20;;;10.30;99.90;;;11.00;100.00;97997.72;5199536;28;20320;-57
2021/10/06 05:14:05;;;;;;;3.30;3.00;;;10.20;99.90;;;10.98;100.00;97999.31;5203813;28;20208;-57
2021/10/06 05:16:38;;;;;;;5.15;3.40;;;10.20;99.90;;;10.92;100.00;98008.31;5197617;28;20297;-59
2021/10/06 05:19:12;;;;;;;5.97;5.47;;;10.20;99.90;;;10.89;100.00;98008.13;5201555;28;20200;-55
2021/10/06 05:21:45;;;;;;;5.07;4.50;;;10.10;99.90;;;10.88;100.00;98011.50;5203715;28;20217;-58
2021/10/06 05:24:18;;;;;;;4.07;3.40;;;10.10;99.90;;;10.89;100.00;98010.69;5189158;28;20286;-61
2021/10/06 05:26:53;;;;;;;4.22;2.90;;;10.20;99.90;;;10.93;100.00;98020.28;5195173;28;20226;-59
2021/10/06 05:29:26;;;;;;;2.92;2.60;;;10.10;99.90;;;10.94;100.00;98016.97;5202396;28;20205;-61
2021/10/06 05:32:03;;;;;;;2.65;2.45;;;10.10;99.90;;;10.94;100.00;98022.06;5195913;28;20325;-60
2021/10/06 05:34:36;;;;;;;3.20;2.60;;;10.10;99.90;;;10.94;100.00;98020.41;5200770;28;20211;-56
2021/10/06 05:37:09;;;;;;;5.45;2.78;;;10.10;99.90;;;10.95;100.00;98034.06;5195455;28;20201;-60
2021/10/06 05:39:42;;;;;;;3.95;2.38;;;10.10;99.90;;;10.97;100.00;98033.34;5200786;28;20706;-59
2021/10/06 05:42:17;;;;;;;3.83;2.50;;;10.20;99.90;;;11.01;100.00;98034.41;5193769;28;20229;-56
2021/10/06 05:44:50;;;;;;;4.07;2.58;;;10.20;99.90;;;11.02;100.00;98041.31;5200648;28;20228;-59
2021/10/06 05:47:23;;;;;;;5.28;4.35;;;10.20;99.90;;;11.04;100.00;98044.81;5197710;28;20716;-57
2021/10/06 05:49:56;;;;;;;6.30;3.50;;;10.30;99.90;;;11.04;100.00;98049.94;5201504;28;20200;-63
2021/10/06 05:52:29;;;;;;;4.78;4.15;;;10.30;99.90;;;11.04;100.00;98042.25;5204460;28;20223;-58
2021/10/06 05:55:05;;;;;;;6.47;3.38;;;10.30;99.90;;;11.07;100.00;98054.34;5198702;28;20742;-55
2021/10/06 05:57:39;;;;;;;3.45;3.13;;;10.30;99.90;;;11.05;100.00;98056.84;5201574;28;20287;-58
2021/10/06 06:00:14;;;;;;;4.18;2.97;;;10.30;99.90;;;11.05;100.00;98056.84;5201033;28;20284;-62
2021/10/06 06:02:48;;;;;;;3.60;2.40;;;10.30;99.90;;;11.17;100.00;98067.78;5194063;28;20790;-61
2021/10/06 06:05:21;;;;;;;5.10;2.58;;;10.30;99.90;;;11.23;100.00;98050.22;5193369;28;20202;-55
2021/10/06 06:07:54;;;;;;;2.55;2.13;;;10.20;99.90;;;11.21;100.00;98058.59;5203740;28;20205;-59
2021/10/06 06:10:27;;;;;;;2.75;1.95;;;10.20;99.90;;;11.13;100.00;98059.81;5207417;28;20284;-58
2021/10/06 06:13:01;;;;;;;3.33;2.33;;;10.10;99.90;;;11.18;100.00;98059.28;5196591;28;20224;-56
2021/10/06 06:15:35;;;;;;;2.78;2.58;;;10.10;99.90;;;11.22;100.00;98060.38;5197219;28;20581;-59
2021/10/06 06:18:08;;;;;;;3.67;2.30;;;10.20;99.90;;;11.16;100.00;98060.91;5199333;28;20198;-56
2021/10/06 06:20:41;;;;;;;4.53;2.30;;;10.20;99.90;;;11.28;100.00;98051.38;5204626;28;20296;-56
2021/10/06 06:23:14;;;;;;;3.60;2.20;;;10.20;99.90;;;11.45;98.81;98054.00;5199267;28;20249;-53
2021/10/06 06:25:48;;;;;;;4.55;2.38;;;10.20;99.90;;;11.42;98.65;98059.84;5200916;28;20245;-58
2021/10/06 06:28:22;;;;;;;2.63;2.40;;;10.20;99.90;;;11.53;99.52;98057.84;5200564;28;20208;-58
2021/10/06 06:30:55;;;;;;;2.63;2.05;;;10.40;99.90;;;11.49;100.00;98058.50;5206483;28;20304;-58
2021/10/06 06:33:28;;;;;;;4.40;2.30;;;10.40;99.90;;;11.48;100.00;98059.31;5187429;28;20299;-55
2021/10/06 06:36:01;;;;;;;4.07;2.30;;;10.30;99.90;;;11.65;96.13;98058.56;5186727;28;20203;-58
2021/10/06 06:38:34;;;;;;;3.58;1.98;;;10.30;99.90;;;11.57;96.32;98054.69;5191970;28;20214;-55
2021/10/06 06:41:07;;;;;;;3.05;2.17;;;10.30;99.90;;;11.52;97.94;98058.66;5206137;28;20197;-57
2021/10/06 06:43:42;;;;;;;2.63;2.35;;;10.30;99.90;;;11.52;98.83;98063.78;5204882;28;20282;-57
2021/10/06 06:46:15;;;;;;;3.97;2.50;;;10.40;99.90;;;11.54;98.19;98061.31;5205406;28;20292;-51
2021/10/06 06:48:48;;;;;;;4.13;2.60;;;10.30;99.90;;;11.52;98.61;98065.47;5203071;28;20206;-59
2021/10/06 06:51:21;;;;;;;2.75;2.40;;;10.30;99.90;;;11.52;98.69;98066.34;5203055;28;20642;-55
2021/10/06 06:53:55;;;;;;;3.38;2.58;;;10.40;99.90;;;11.42;99.26;98070.06;5202591;28;20205;-58
2021/10/06 06:56:30;;;;;;;3.17;2.60;;;10.40;99.90;;;11.49;97.54;98071.28;5193767;28;20217;-60
2021/10/06 06:59:04;;;;;;;3.13;2.15;;;10.30;99.90;;;11.46;98.79;98076.25;5205950;28;20196;-59
2021/10/06 07:01:37;;;;;;;2.60;2.30;;;10.30;99.90;;;11.47;99.54;98084.03;5201258;28;20229;-57
2021/10/06 07:04:10;;;;;;;4.07;2.53;;;10.40;99.90;;;11.50;99.91;98080.72;5202571;28;20229;-52
2021/10/06 07:06:43;;;;;;;3.60;2.22;;;10.40;99.90;;;11.83;98.44;98080.88;5186023;28;20218;-58
2021/10/06 07:09:22;;;;;;;3.60;2.53;;;10.60;99.90;;;12.10;96.95;98082.44;5204061;28;20210;-54
2021/10/06 07:11:55;;;;;;;2.60;2.40;;;10.80;99.90;;;12.28;97.03;98094.47;5198251;28;20229;-59
2021/10/06 07:14:30;;;;;;;3.35;2.17;;;11.10;99.90;;;12.57;96.52;98091.78;5201274;28;20265;-56
2021/10/06 07:17:03;;;;;;;2.20;2.00;;;11.40;99.90;;;12.85;93.17;98100.94;5204911;28;20193;-55
2021/10/06 07:19:36;;;;;;;3.58;2.38;;;11.60;99.90;;;12.92;92.11;98104.69;5205245;28;20213;-58
2021/10/06 07:22:10;;;;;;;2.55;2.25;;;11.70;99.90;;;12.84;90.59;98104.28;5205781;28;20221;-56
2021/10/06 07:24:44;;;;;;;3.17;2.20;;;11.60;99.90;;;12.77;90.00;98107.34;5205641;28;20737;-55
2021/10/06 07:27:17;;;;;;;2.63;2.10;;;11.40;99.90;;;12.66;90.80;98111.03;5205160;28;20226;-58
2021/10/06 07:29:51;;;;;;;3.85;2.05;;;11.40;99.90;;;12.76;92.76;98110.69;5204676;28;20206;-56
2021/10/06 07:32:25;;;;;;;3.17;2.22;;;11.60;99.90;;;13.15;91.25;98113.56;5201037;28;20220;-58
2021/10/06 07:34:58;;;;;;;2.90;2.30;;;12.10;99.90;;;13.41;86.92;98110.66;5192199;28;20733;-55
2021/10/06 07:37:31;;;;;;;2.97;2.05;;;12.30;99.90;;;13.61;85.54;98114.19;5204760;28;20282;-58
2021/10/06 07:40:06;;;;;;;4.82;2.10;;;12.70;99.90;;;13.83;84.66;98116.13;5205567;28;20197;-57
2021/10/06 07:42:39;;;;;;;3.10;2.00;;;13.10;99.90;;;14.09;80.88;98116.50;5205217;28;20224;-59
2021/10/06 07:45:14;;;;;;;3.58;2.03;;;13.40;99.90;;;14.23;79.93;98112.91;5204464;28;20205;-54
2021/10/06 07:47:47;;;;;;;3.25;2.17;;;13.70;99.90;;;14.45;78.37;98124.16;5202532;28;20227;-60
2021/10/06 07:50:20;;;;;;;3.00;2.10;;;14.00;99.90;;;14.76;77.50;98124.78;5204852;28;20669;-56
2021/10/06 07:52:54;;;;;;;2.88;2.20;;;14.30;99.90;;;14.98;74.32;98121.47;5205737;28;20305;-59
2021/10/06 07:55:27;;;;;;;3.58;2.10;;;14.50;99.90;;;15.04;74.71;98118.28;5203914;28;20198;-55
2021/10/06 07:58:00;;;;;;;3.90;2.08;;;14.60;99.90;;;15.20;73.16;98122.41;5205088;28;20680;-57
2021/10/06 08:00:34;;;;;;;3.03;1.95;;;14.70;99.90;;;15.22;72.28;98131.97;5202157;28;20202;-57
2021/10/06 08:03:07;;;;;;;3.80;1.88;;;14.60;99.90;;;15.22;70.36;98144.84;5229426;22;20243;-61
2021/10/06 08:05:40;;;;;;;3.33;1.70;;;14.90;99.90;;;15.33;71.33;98143.59;5205056;28;20729;-61
2021/10/06 08:08:13;;;;;;;2.83;1.90;;;14.80;99.90;;;15.27;70.83;98148.47;5204903;28;20317;-61
2021/10/06 08:10:46;;;;;;;2.38;1.90;;;14.80;99.90;;;15.27;68.99;98156.19;5221856;28;20703;-62
2021/10/06 08:13:20;;;;;;;2.13;1.90;;;14.70;99.90;;;15.29;69.03;98159.72;5198338;28;20590;-60
2021/10/06 08:15:55;;;;;;;3.53;2.00;;;14.70;99.90;;;15.28;69.33;98159.66;5181670;28;20629;-61
2021/10/06 08:18:28;;;;;;;3.08;1.90;;;14.60;99.90;;;15.27;69.66;98158.78;5187797;28;20200;-60
2021/10/06 08:21:01;;;;;;;4.38;1.90;;;14.70;99.90;;;15.45;69.68;98162.97;5191434;28;20607;-61
2021/10/06 08:23:34;;;;;;;2.05;1.90;;;14.90;99.90;;;15.52;69.45;98176.19;5196867;28;20609;-60
2021/10/06 08:26:07;;;;;;;3.35;2.00;;;15.00;99.90;;;15.75;67.89;98171.16;5184896;28;20202;-61
2021/10/06 08:28:40;;;;;;;2.65;1.85;;;15.20;99.90;;;15.84;66.93;98173.22;5175453;28;20304;-60
2021/10/06 08:31:14;;;;;;;3.05;1.80;;;15.30;99.90;;;15.86;65.69;98181.91;5179852;28;20612;-61
2021/10/06 08:33:47;;;;;;;2.10;1.80;;;15.20;99.90;;;15.76;66.13;98176.34;5193631;28;20267;-62
2021/10/06 08:36:20;;;;;;;4.20;1.95;;;15.00;99.90;;;15.77;67.15;98183.28;5184631;28;20201;-62
2021/10/06 08:38:53;;;;;;;2.67;1.58;;;15.00;99.90;;;15.58;63.69;98180.72;5194881;28;20285;-60
2021/10/06 08:41:27;;;;;;;3.60;1.90;;;14.70;99.90;;;15.48;65.26;98178.53;5196280;28;20208;-61
2021/10/06 08:44:01;;;;;;;1.98;1.80;;;14.50;99.90;;;15.47;65.66;98181.94;5189507;28;20289;-61
2021/10/06 08:46:36;;;;;;;1.73;1.40;;;14.40;99.90;;;15.40;65.42;98185.09;5185646;28;20215;-61
2021/10/06 08:49:09;;;;;;;2.63;1.90;;;14.30;99.90;;;15.15;66.08;98186.56;5191766;28;20213;-61
2021/10/06 08:51:42;;;;;;;2.85;2.03;;;14.10;99.90;;;15.03;65.65;98183.47;5188180;28;20205;-61
2021/10/06 08:54:15;;;;;;;2.08;1.60;;;13.90;99.90;;;15.00;65.99;98178.19;5202255;28;20202;-61
2021/10/06 08:56:49;;;;;;;2.88;1.88;;;13.90;99.90;;;15.00;67.00;98191.06;5171133;28;20556;-60
2021/10/06 08:59:22;;;;;;;3.47;2.05;;;13.90;99.90;;;14.85;65.51;98202.41;5184515;28;20742;-61
2021/10/06 09:01:56;;;;;;;2.17;1.90;;;13.80;99.90;;;14.84;65.34;98195.47;5183804;28;20214;-57
2021/10/06 09:04:33;;;;;;;4.88;2.13;;;13.60;99.90;;;14.71;65.71;98205.13;5174891;28;20579;-61
2021/10/06 09:07:06;;;;;;;2.38;1.83;;;13.50;99.90;;;14.56;66.46;98197.59;5181661;28;20219;-61
2021/10/06 09:09:39;;;;;;;3.80;1.70;;;13.50;99.90;;;14.54;66.66;98206.94;5174956;28;20297;-60
2021/10/06 09:12:15;;;;;;;3.00;1.80;;;13.50;99.90;;;14.56;66.35;98207.88;5201791;28;20216;-61
2021/10/06 09:14:49;;;;;;;4.45;1.95;;;13.50;99.90;;;14.63;64.41;98213.41;5208858;28;20235;-57
2021/10/06 09:17:23;;;;;;;3.15;2.20;;;13.40;99.90;;;14.60;64.44;98205.53;5191130;28;20277;-58
2021/10/06 09:19:57;;;;;;;3.35;1.75;;;13.50;99.90;;;14.61;63.83;98215.00;5206558;28;20291;-55
2021/10/06 09:22:31;;;;;;;2.95;1.80;;;13.50;99.90;;;14.59;64.43;98206.34;5208718;28;20218;-61
2021/10/06 09:25:08;;;;;;;3.08;1.90;;;13.60;99.90;;;14.43;65.54;98204.72;5183585;28;20191;-57
2021/10/06 09:27:42;;;;;;;2.92;1.73;;;13.40;99.90;;;14.49;65.50;98219.56;5172809;28;20313;-59
2021/10/06 09:30:16;;;;;;;4.07;1.95;;;13.40;99.90;;;14.32;68.06;98213.59;5207013;28;20193;-56
2021/10/06 09:32:50;;;;;;;3.70;1.95;;;13.30;99.90;;;14.37;67.70;98230.13;5196808;28;20305;-59
2021/10/06 09:35:23;;;;;;;4.03;2.20;;;13.40;99.90;;;14.08;71.96;98232.97;5172366;28;20201;-58
2021/10/06 09:37:58;;;;;;;3.30;2.03;;;13.30;99.90;;;13.54;75.49;98240.56;5184698;28;20241;-55
2021/10/06 09:40:32;;;;;;;2.42;1.90;;;12.90;99.90;;;12.90;78.81;98253.38;5192429;28;20197;-61
2021/10/06 09:43:06;;;;;;;4.72;2.20;;;12.40;99.90;;;12.38;84.37;98250.53;5200865;28;20245;-65
2021/10/06 09:45:39;;;;;;;3.08;2.20;;;12.00;99.90;;;12.12;86.79;98262.75;5193325;28;20206;-59
2021/10/06 09:48:16;;;;;;;3.97;2.30;;;11.70;99.90;;;11.95;89.81;98264.31;5178595;28;20227;-62
2021/10/06 09:50:50;;;;;;;3.78;2.30;;;11.50;99.90;;;11.87;92.35;98268.13;5191668;28;20293;-61
2021/10/06 09:53:24;;;;;;;5.18;2.65;;;11.50;99.90;;;11.78;94.45;98264.09;5202868;28;20264;-62
2021/10/06 09:55:57;;;;;;;6.50;2.88;;;11.30;99.90;;;11.62;95.09;98267.47;5181530;28;20237;-62
2021/10/06 09:58:30;;;;;;;4.78;2.30;;;11.10;99.90;;;11.53;96.42;98270.31;5178664;28;20418;-61
2021/10/06 10:01:03;;;;;;;6.50;2.75;;;11.00;99.90;;;11.78;100.00;98279.47;5195275;28;20558;-61
2021/10/06 10:03:38;;;;;;;4.63;2.70;;;11.10;99.90;;;12.12;100.00;98285.81;5182342;28;20234;-60
2021/10/06 10:06:11;;;;;;;4.65;3.00;;;11.40;99.90;;;12.33;100.00;98287.81;5175930;28;20285;-64
2021/10/06 10:08:45;;;;;;;5.40;2.78;;;11.60;99.90;;;12.59;100.00;98287.63;5183286;28;20222;-65
2021/10/06 10:11:18;;;;;;;4.03;2.90;;;11.70;99.90;;;12.69;100.00;98288.13;5195957;28;20630;-63
2021/10/06 10:13:51;;;;;;;4.22;2.80;;;11.80;99.90;;;12.75;100.00;98283.34;5185493;28;20226;-63
2021/10/06 10:16:26;;;;;;;5.38;2.75;;;11.90;99.90;;;12.78;100.00;98274.13;5195643;28;20336;-63
2021/10/06 10:19:08;;;;;;;5.25;3.00;;;11.90;99.90;;;12.94;100.00;98275.88;5174769;28;20572;-63
2021/10/06 10:21:44;;;;;;;2.97;2.42;;;12.10;99.90;;;13.04;100.00;98280.69;5184629;28;20198;-63
2021/10/06 10:24:23;;;;;;;4.75;2.70;;;12.10;99.90;;;13.10;100.00;98274.13;5197056;28;20190;-61
2021/10/06 10:27:03;;;;;;;2.83;2.40;;;12.00;99.90;;;13.07;100.00;98278.28;5169068;28;20587;-60
2021/10/06 10:29:49;;;;;;;3.60;2.70;;;12.00;99.90;;;13.22;100.00;98277.34;5179876;28;20224;-61
2021/10/06 10:32:24;;;;;;;4.85;3.00;;;12.20;99.90;;;13.46;100.00;98277.81;5181157;28;20214;-63
2021/10/06 10:35:07;;;;;;;4.50;2.53;;;12.20;99.90;;;13.61;99.32;98287.97;5181928;28;20194;-61
2021/10/06 10:38:18;;;;;;;4.13;2.45;;;12.30;99.90;;;13.68;99.25;98279.81;5183510;28;20201;-63
2021/10/06 10:40:58;;;;;;;4.90;2.45;;;12.50;99.90;;;13.84;100.00;98277.19;5178897;28;20258;-63
2021/10/06 10:43:32;;;;;;;3.08;2.40;;;12.70;99.90;;;14.07;95.84;98274.91;5171902;28;20214;-62